Time;durP1;ratioP1;P1;durP2;ratioP2;P2;SDS_P1;SDS_P2;PMS_P1;PMS_P2;Temp;Humidity;BMP_temperature;BMP_pressure;BME280_temperature;BME280_humidity;BME280_pressure;Samples;Min_cycle;Max_cycle;Signal;HPM_P1;HPM_P2
2021/08/05 00:02:13;;;;;;;12.77;11.47;;;14.40;99.90;;;15.17;78.19;93939.78;4989416;28;20266;-72
2021/08/05 00:04:40;;;;;;;13.73;11.87;;;14.90;99.90;;;15.18;78.17;93938.66;5005556;28;20201;-72
2021/08/05 00:07:06;;;;;;;14.57;11.77;;;14.30;99.90;;;15.17;78.18;93931.78;5007161;28;20199;-72
2021/08/05 00:09:33;;;;;;;11.93;10.73;;;14.30;99.90;;;15.13;78.14;93936.09;4988698;28;20207;-72
2021/08/05 00:11:59;;;;;;;12.27;10.67;;;14.30;99.90;;;15.13;78.10;93928.09;4991554;28;20931;-72
2021/08/05 00:14:25;;;;;;;11.73;10.63;;;14.30;99.90;;;15.15;78.11;93938.47;5001483;28;20228;-72
2021/08/05 00:16:52;;;;;;;11.33;10.23;;;14.30;99.90;;;15.15;78.30;93941.13;4991381;28;20213;-72
2021/08/05 00:19:18;;;;;;;12.00;10.80;;;14.30;99.90;;;15.14;78.40;93942.22;4995204;28;20930;-72
2021/08/05 00:21:44;;;;;;;10.70;9.60;;;14.30;99.90;;;15.13;78.37;93938.78;4991885;28;20201;-72
2021/08/05 00:24:13;;;;;;;10.63;9.17;;;14.20;99.90;;;15.13;78.33;93944.09;4988364;28;20200;-72
2021/08/05 00:26:41;;;;;;;10.03;9.00;;;14.20;99.90;;;15.20;78.45;93944.53;5005296;28;20646;-72
2021/08/05 00:29:07;;;;;;;11.47;8.97;;;14.30;99.90;;;15.16;78.26;93943.53;4981180;28;20241;-72
2021/08/05 00:31:33;;;;;;;9.50;8.53;;;14.30;99.90;;;15.15;78.42;93936.59;5008283;28;20224;-73
2021/08/05 00:34:00;;;;;;;8.63;7.93;;;14.30;99.90;;;15.20;78.47;93946.41;4995650;28;20215;-72
2021/08/05 00:36:26;;;;;;;8.37;7.60;;;14.30;99.90;;;15.21;78.50;93930.06;5007785;28;20279;-72
2021/08/05 00:38:54;;;;;;;9.53;8.60;;;14.30;99.90;;;15.23;78.37;93933.25;5004419;28;20276;-72
2021/08/05 00:41:20;;;;;;;9.33;7.63;;;14.30;99.90;;;15.19;78.49;93924.25;4989051;28;20204;-72
2021/08/05 00:43:46;;;;;;;10.03;8.80;;;14.30;99.90;;;15.18;78.53;93933.34;5014631;28;20197;-72
2021/08/05 00:46:12;;;;;;;12.87;9.20;;;14.30;99.90;;;15.14;78.47;93929.66;5003224;28;20194;-72
2021/08/05 00:48:38;;;;;;;11.03;9.30;;;14.30;99.90;;;15.10;78.64;93915.31;4998343;28;20201;-72
2021/08/05 00:51:04;;;;;;;11.00;9.90;;;14.30;99.90;;;15.14;78.48;93916.31;5009042;28;20219;-72
2021/08/05 00:53:30;;;;;;;10.27;9.20;;;14.30;99.90;;;15.10;78.56;93917.19;4988155;28;20218;-72
2021/08/05 00:55:58;;;;;;;11.23;10.03;;;14.20;99.90;;;15.07;78.52;93915.13;4986835;28;20292;-72
2021/08/05 00:58:24;;;;;;;11.47;10.27;;;14.20;99.90;;;15.08;78.78;93919.34;5002262;28;20270;-72
2021/08/05 01:01:00;;;;;;;13.80;10.87;;;14.20;99.90;;;14.99;78.95;93929.13;4986743;28;20243;-73
2021/08/05 01:03:31;;;;;;;13.23;9.93;;;14.10;99.90;;;14.94;78.76;93921.19;5001328;28;20193;-72
2021/08/05 01:06:37;;;;;;;10.73;9.60;;;14.10;99.90;;;15.04;78.80;93927.16;4992953;28;20222;-74
2021/08/05 01:09:30;;;;;;;13.27;10.67;;;14.10;99.90;;;15.08;78.94;93920.16;5001832;28;20632;-73
2021/08/05 01:12:35;;;;;;;13.07;10.53;;;14.10;99.90;;;15.16;78.81;93924.03;5003755;28;20907;-73
2021/08/05 01:15:14;;;;;;;11.67;10.23;;;14.20;99.90;;;15.13;78.74;93920.09;5005391;28;20308;-73
2021/08/05 01:17:47;;;;;;;10.87;9.77;;;14.20;99.90;;;15.13;78.93;93912.06;5000971;28;20209;-72
2021/08/05 01:20:17;;;;;;;10.50;9.50;;;14.20;99.90;;;15.13;78.91;93912.06;5004186;28;20186;-73
2021/08/05 01:23:19;;;;;;;13.43;10.07;;;14.20;99.90;;;15.08;79.02;93912.13;5000459;28;20200;-73
2021/08/05 01:25:51;;;;;;;10.70;9.60;;;14.20;99.90;;;15.01;78.91;93908.28;4984914;28;20985;-72
2021/08/05 01:28:18;;;;;;;10.90;9.43;;;14.10;99.90;;;14.99;78.95;93903.22;4977979;28;20738;-73
2021/08/05 01:30:50;;;;;;;10.13;9.07;;;14.20;99.90;;;14.99;78.90;93907.75;5008595;28;20830;-73
2021/08/05 01:33:22;;;;;;;8.90;7.93;;;14.10;99.90;;;15.07;79.02;93902.56;4984429;28;20248;-72
2021/08/05 01:35:52;;;;;;;8.83;7.93;;;14.10;99.90;;;15.02;79.04;93899.97;4987319;28;20261;-73
2021/08/05 01:38:19;;;;;;;9.43;7.77;;;14.00;99.90;;;14.96;79.18;93895.00;4969660;28;20961;-73
2021/08/05 01:40:49;;;;;;;8.53;7.33;;;14.00;99.90;;;14.90;79.12;93899.63;5007876;28;20656;-73
2021/08/05 01:43:19;;;;;;;8.30;7.13;;;14.00;99.90;;;14.92;79.01;93904.66;4993209;28;20240;-73
2021/08/05 01:45:47;;;;;;;8.77;7.27;;;14.30;99.90;;;14.69;79.01;93888.47;4973685;28;20319;-72
2021/08/05 01:48:15;;;;;;;9.53;8.00;;;14.20;99.90;;;14.57;79.02;93892.66;4990201;28;20213;-73
2021/08/05 01:50:45;;;;;;;10.77;8.07;;;14.10;99.90;;;14.54;79.23;93890.59;4994152;28;20208;-72
2021/08/05 01:53:15;;;;;;;8.83;7.60;;;14.20;99.90;;;14.57;78.95;93887.34;4991380;28;20248;-73
2021/08/05 01:55:42;;;;;;;11.47;8.03;;;13.10;99.90;;;14.51;79.27;93883.94;4969586;28;20211;-73
2021/08/05 01:58:09;;;;;;;10.03;8.77;;;13.60;99.90;;;14.66;79.29;93891.72;4975602;28;20629;-72
2021/08/05 02:00:36;;;;;;;10.30;8.57;;;13.70;99.90;;;14.67;79.13;93893.28;4971358;28;20262;-73
2021/08/05 02:03:08;;;;;;;8.87;6.97;;;13.70;99.90;;;14.72;79.48;93892.44;5018143;28;20709;-72
2021/08/05 02:06:03;;;;;;;11.77;7.70;;;13.80;99.90;;;14.74;79.33;93887.63;5002479;28;20193;-73
2021/08/05 02:08:44;;;;;;;7.53;6.73;;;13.70;99.90;;;14.75;79.34;93881.19;5010596;28;20193;-73
2021/08/05 02:11:10;;;;;;;7.77;6.50;;;13.80;99.90;;;14.77;79.50;93866.47;5005947;28;20189;-73
2021/08/05 02:13:43;;;;;;;6.73;5.97;;;13.80;99.90;;;14.79;79.51;93882.97;4991793;28;20224;-73
2021/08/05 02:16:13;;;;;;;6.50;5.80;;;13.80;99.90;;;14.88;79.34;93881.22;5007241;28;20200;-73
2021/08/05 02:18:45;;;;;;;7.60;6.43;;;13.90;99.90;;;14.86;79.54;93874.59;5012361;28;20243;-73
2021/08/05 02:21:16;;;;;;;6.27;5.23;;;13.90;99.90;;;14.94;79.47;93875.81;5003807;28;20201;-73
2021/08/05 02:23:43;;;;;;;6.00;5.10;;;13.90;99.90;;;14.85;79.44;93862.34;5007664;28;20249;-73
2021/08/05 02:26:09;;;;;;;5.90;4.70;;;13.90;99.90;;;14.87;79.51;93863.63;5006631;28;20251;-73
2021/08/05 02:28:37;;;;;;;6.23;5.33;;;13.90;99.90;;;14.86;79.44;93864.72;5007776;28;20595;-73
2021/08/05 02:31:07;;;;;;;6.07;4.97;;;13.90;99.90;;;14.87;79.33;93849.53;5006423;28;20215;-73
2021/08/05 02:33:37;;;;;;;7.23;4.80;;;13.90;99.90;;;14.93;79.56;93884.91;4993961;28;20213;-73
2021/08/05 02:36:03;;;;;;;6.27;4.83;;;13.90;99.90;;;14.99;79.62;93870.41;4988560;28;20199;-73
2021/08/05 02:38:29;;;;;;;6.20;4.90;;;14.10;99.90;;;15.02;79.48;93859.13;5007544;28;20200;-73
2021/08/05 02:40:56;;;;;;;5.30;4.80;;;14.00;99.90;;;15.03;79.73;93853.50;4989907;28;20201;-73
2021/08/05 02:43:27;;;;;;;4.63;4.23;;;14.10;99.90;;;15.05;79.65;93859.34;5005583;28;20269;-73
2021/08/05 02:45:59;;;;;;;5.30;4.80;;;14.10;99.90;;;15.04;79.73;93863.09;5005237;28;20217;-73
2021/08/05 02:48:26;;;;;;;5.00;4.53;;;14.10;99.90;;;15.05;79.83;93854.00;5010009;28;20723;-73
2021/08/05 02:51:00;;;;;;;6.07;4.53;;;14.10;99.90;;;15.04;79.75;93856.97;5008052;28;20203;-73
2021/08/05 02:53:29;;;;;;;6.27;5.10;;;14.10;99.90;;;15.03;79.88;93856.19;5012343;28;20232;-72
2021/08/05 02:55:56;;;;;;;5.37;4.63;;;14.10;99.90;;;15.02;79.80;93853.78;4989821;28;20185;-73
2021/08/05 02:58:23;;;;;;;7.00;5.30;;;14.10;99.90;;;15.07;79.77;93851.06;5006099;28;20236;-73
2021/08/05 03:00:50;;;;;;;6.33;5.67;;;14.10;99.90;;;15.04;79.81;93843.63;4988317;28;20619;-73
2021/08/05 03:03:22;;;;;;;5.87;5.37;;;14.10;99.90;;;15.13;79.87;93855.22;5027040;28;20201;-73
2021/08/05 03:05:55;;;;;;;6.90;6.07;;;14.20;99.90;;;15.17;79.98;93853.53;4988678;28;20196;-73
2021/08/05 03:08:26;;;;;;;8.03;6.43;;;14.20;99.90;;;15.16;80.18;93860.75;4990274;28;20296;-73
2021/08/05 03:10:52;;;;;;;7.50;6.53;;;14.30;99.90;;;15.15;80.08;93848.47;5009261;28;20267;-73
2021/08/05 03:13:20;;;;;;;8.33;6.50;;;14.30;99.90;;;15.18;79.87;93842.56;5002232;28;20209;-73
2021/08/05 03:15:46;;;;;;;6.93;6.23;;;14.30;99.90;;;15.19;79.94;93844.16;5006833;28;20222;-73
2021/08/05 03:18:12;;;;;;;6.33;5.73;;;14.30;99.90;;;15.13;80.11;93841.88;4996656;28;20625;-73
2021/08/05 03:20:38;;;;;;;7.83;5.53;;;14.30;99.90;;;15.18;80.15;93855.91;5009232;28;20198;-73
2021/08/05 03:23:04;;;;;;;7.03;6.37;;;14.30;99.90;;;15.19;80.17;93849.50;5003969;28;20207;-72
2021/08/05 03:25:30;;;;;;;8.47;6.00;;;14.30;99.90;;;15.19;80.26;93849.50;5007516;28;20196;-72
2021/08/05 03:27:56;;;;;;;8.00;5.53;;;14.30;99.90;;;15.18;80.03;93847.91;4984890;28;20232;-73
2021/08/05 03:30:24;;;;;;;5.97;5.37;;;14.80;99.90;;;15.19;80.11;93841.47;4992052;28;20267;-73
2021/08/05 03:32:50;;;;;;;5.30;4.80;;;14.20;99.90;;;15.17;80.09;93842.88;5010031;28;20222;-72
2021/08/05 03:35:18;;;;;;;6.73;5.13;;;14.50;99.90;;;15.19;80.18;93852.16;4989509;28;20206;-73
2021/08/05 03:37:44;;;;;;;6.03;5.43;;;14.70;99.90;;;15.24;80.27;93841.38;5008590;28;20263;-73
2021/08/05 03:40:11;;;;;;;6.27;5.30;;;14.90;99.90;;;15.26;80.03;93846.44;5006587;28;20193;-72
2021/08/05 03:42:37;;;;;;;7.90;6.30;;;14.40;99.90;;;15.21;80.12;93852.66;4984656;28;20641;-72
2021/08/05 03:45:03;;;;;;;7.87;6.10;;;14.40;99.90;;;15.20;80.38;93840.41;5008954;28;20212;-73
2021/08/05 03:47:29;;;;;;;6.40;5.67;;;14.40;99.90;;;15.22;80.35;93838.22;4987955;28;20189;-73
2021/08/05 03:49:55;;;;;;;6.17;5.60;;;14.40;99.90;;;15.24;80.35;93846.72;4994200;28;20739;-73
2021/08/05 03:52:21;;;;;;;8.40;5.67;;;14.40;99.90;;;15.28;80.28;93842.38;4989905;28;20242;-73
2021/08/05 03:54:49;;;;;;;7.60;5.40;;;14.40;99.90;;;15.25;80.47;93842.16;4989639;28;20204;-73
2021/08/05 03:57:17;;;;;;;5.90;5.23;;;14.40;99.90;;;15.22;80.53;93843.56;5008653;28;20194;-73
2021/08/05 03:59:44;;;;;;;5.40;4.90;;;14.40;99.90;;;15.26;80.32;93849.09;4991046;28;20200;-73
2021/08/05 04:02:10;;;;;;;5.03;4.53;;;14.40;99.90;;;15.25;80.54;93844.84;5002106;28;20228;-73
2021/08/05 04:04:38;;;;;;;5.53;5.03;;;14.40;99.90;;;15.29;80.21;93848.50;5006192;28;20656;-73
2021/08/05 04:07:06;;;;;;;6.53;5.00;;;14.50;99.90;;;15.36;80.42;93840.91;4990158;28;20202;-73
2021/08/05 04:09:32;;;;;;;6.87;5.23;;;14.50;99.90;;;15.30;80.56;93839.44;4988696;28;20209;-73
2021/08/05 04:11:58;;;;;;;5.17;4.67;;;14.50;99.90;;;15.35;80.56;93848.13;4990876;28;20566;-73
2021/08/05 04:14:24;;;;;;;5.97;5.03;;;14.60;99.90;;;15.35;80.57;93842.78;5004839;28;20876;-73
2021/08/05 04:16:49;;;;;;;5.90;5.40;;;14.50;99.90;;;15.37;80.75;93842.50;4985252;28;20211;-73
2021/08/05 04:19:15;;;;;;;5.90;4.87;;;14.60;99.90;;;15.38;80.57;93844.88;5006872;28;20197;-72
2021/08/05 04:21:41;;;;;;;5.97;4.90;;;14.60;99.90;;;15.37;80.61;93842.50;5001278;28;20203;-73
2021/08/05 04:24:10;;;;;;;5.73;4.70;;;14.60;99.90;;;15.38;80.72;93846.75;5005579;28;20578;-73
2021/08/05 04:26:37;;;;;;;4.63;4.23;;;14.60;99.90;;;15.38;80.66;93846.75;5015610;28;20208;-73
2021/08/05 04:29:03;;;;;;;5.07;4.03;;;14.60;99.90;;;15.36;80.55;93851.59;5024312;28;20713;-73
2021/08/05 04:31:29;;;;;;;5.17;4.13;;;14.60;99.90;;;15.36;80.48;93854.25;5003411;28;20223;-73
2021/08/05 04:33:54;;;;;;;4.23;3.83;;;14.60;99.90;;;15.44;80.73;93850.94;4990182;28;20179;-73
2021/08/05 04:36:22;;;;;;;4.77;4.30;;;14.60;99.90;;;15.45;80.75;93846.34;4997857;28;20227;-73
2021/08/05 04:38:51;;;;;;;4.90;3.90;;;14.60;99.90;;;15.45;80.79;93849.81;4992038;28;20287;-73
2021/08/05 04:41:17;;;;;;;4.43;4.03;;;14.60;99.90;;;15.47;80.74;93852.19;5002256;28;20207;-73
2021/08/05 04:43:46;;;;;;;4.23;3.80;;;14.60;99.90;;;15.46;80.73;93858.63;4986784;28;20205;-73
2021/08/05 04:46:12;;;;;;;4.30;3.90;;;14.60;99.90;;;15.45;80.64;93846.34;4971757;28;20204;-73
2021/08/05 04:48:38;;;;;;;5.20;4.13;;;14.60;99.90;;;15.51;80.80;93851.34;5003438;28;20202;-73
2021/08/05 04:51:04;;;;;;;5.20;4.20;;;14.70;99.90;;;15.54;80.94;93853.44;5001842;28;20202;-72
2021/08/05 04:53:30;;;;;;;4.57;4.00;;;14.70;99.90;;;15.56;80.95;93851.25;5007623;28;20690;-73
2021/08/05 04:55:56;;;;;;;4.80;4.40;;;14.70;99.90;;;15.60;80.64;93848.78;5002857;28;20205;-72
2021/08/05 04:58:23;;;;;;;4.80;4.30;;;14.80;99.90;;;15.62;80.68;93852.72;5006940;28;20219;-73
2021/08/05 05:00:50;;;;;;;5.10;4.43;;;14.80;99.90;;;15.65;80.70;93859.34;5002865;28;20204;-72
2021/08/05 05:03:16;;;;;;;4.57;4.17;;;14.80;99.90;;;15.66;80.70;93848.38;5023000;28;20190;-73
2021/08/05 05:05:42;;;;;;;7.10;4.90;;;14.90;99.90;;;15.73;80.98;93861.34;5003288;28;20210;-73
2021/08/05 05:08:18;;;;;;;4.83;4.33;;;14.90;99.90;;;15.74;80.69;93863.75;5004983;28;20211;-73
2021/08/05 05:10:45;;;;;;;4.70;4.30;;;14.90;99.90;;;15.73;80.69;93858.69;5009712;28;20212;-73
2021/08/05 05:13:11;;;;;;;4.77;4.17;;;15.00;99.90;;;15.76;80.74;93853.53;4986716;28;20260;-73
2021/08/05 05:15:38;;;;;;;4.97;4.47;;;15.20;99.90;;;15.73;80.94;93850.66;5011333;28;20197;-72
2021/08/05 05:18:04;;;;;;;6.20;4.97;;;14.90;99.90;;;15.70;80.94;93853.94;5011446;28;20815;-72
2021/08/05 05:20:31;;;;;;;5.70;4.80;;;15.00;99.90;;;15.74;81.08;93854.94;5024580;28;20280;-72
2021/08/05 05:22:57;;;;;;;5.63;5.13;;;14.80;99.90;;;15.84;80.85;93857.41;4996260;28;20601;-72
2021/08/05 05:25:24;;;;;;;6.00;5.50;;;15.10;99.90;;;15.85;80.97;93857.09;4994320;28;20203;-73
2021/08/05 05:27:53;;;;;;;6.70;6.10;;;15.00;99.90;;;15.86;80.97;93853.31;5003810;28;20805;-72
2021/08/05 05:30:19;;;;;;;6.87;6.27;;;15.10;99.90;;;15.85;80.84;93854.41;5008251;28;20551;-72
2021/08/05 05:32:46;;;;;;;7.27;6.07;;;15.10;99.90;;;15.79;81.04;93852.13;5018567;28;20233;-73
2021/08/05 05:35:16;;;;;;;7.70;7.00;;;15.00;99.90;;;15.91;80.91;93868.47;5009856;28;20295;-73
2021/08/05 05:37:46;;;;;;;7.07;6.50;;;15.10;99.90;;;16.10;80.91;93882.53;4991842;28;20201;-72
2021/08/05 05:40:14;;;;;;;6.73;6.13;;;15.20;99.90;;;16.22;80.82;93864.06;4995141;28;20193;-73
2021/08/05 05:42:42;;;;;;;7.13;6.17;;;15.40;99.90;;;16.40;80.84;93878.41;5006477;28;20208;-74
2021/08/05 05:45:12;;;;;;;6.17;5.60;;;15.50;99.90;;;16.51;81.25;93866.41;5008372;28;20197;-74
2021/08/05 05:47:40;;;;;;;6.40;5.73;;;15.70;99.90;;;16.56;80.98;93865.50;5011132;28;20193;-74
2021/08/05 05:50:08;;;;;;;7.00;5.87;;;15.80;99.90;;;16.64;80.88;93862.13;5009388;28;20210;-74
2021/08/05 05:52:34;;;;;;;6.53;5.93;;;15.80;99.90;;;16.66;80.61;93868.75;5030214;28;20266;-74
2021/08/05 05:55:00;;;;;;;6.63;6.03;;;15.90;99.90;;;16.79;80.71;93867.13;5011224;28;20195;-73
2021/08/05 05:57:26;;;;;;;5.93;5.33;;;16.00;99.90;;;16.80;80.86;93861.47;4983984;28;20284;-75
2021/08/05 05:59:55;;;;;;;5.30;4.80;;;16.10;99.90;;;16.89;81.02;93856.16;4995855;28;20190;-74
2021/08/05 06:02:23;;;;;;;5.80;5.07;;;16.20;99.90;;;17.15;81.02;93867.06;5003185;28;20207;-75
2021/08/05 06:04:49;;;;;;;5.50;5.07;;;16.40;99.90;;;17.30;80.53;93853.28;5010393;28;20216;-74
2021/08/05 06:07:17;;;;;;;4.77;4.37;;;16.50;99.90;;;17.35;80.91;93861.22;5018101;28;20197;-74
2021/08/05 06:09:43;;;;;;;4.73;4.33;;;16.60;99.90;;;17.68;80.92;93864.38;5010998;28;20219;-74
2021/08/05 06:12:09;;;;;;;4.77;4.20;;;16.90;99.90;;;17.81;80.58;93852.75;5009384;28;20259;-74
2021/08/05 06:14:35;;;;;;;4.07;3.70;;;17.10;99.90;;;18.04;80.89;93870.34;5013015;28;20220;-74
2021/08/05 06:17:01;;;;;;;3.77;3.33;;;17.30;99.90;;;18.28;80.43;93857.31;4987326;28;20606;-74
2021/08/05 06:19:27;;;;;;;3.50;3.20;;;17.60;99.90;;;18.47;80.63;93843.59;5011020;28;20192;-74
2021/08/05 06:21:53;;;;;;;4.00;3.60;;;17.70;99.90;;;18.97;80.35;93904.97;5012868;28;20204;-74
2021/08/05 06:24:19;;;;;;;3.93;3.00;;;18.00;99.90;;;21.21;80.03;93952.28;5010951;28;20207;-74
2021/08/05 06:26:49;;;;;;;2.90;2.33;;;19.90;99.90;;;23.63;79.94;93921.97;5012132;28;20241;-74
2021/08/05 06:29:18;;;;;;;1.80;1.70;;;22.40;99.90;;;24.16;79.83;93863.81;4991835;28;20335;-75
2021/08/05 06:31:47;;;;;;;2.50;1.90;;;23.60;99.90;;;23.66;79.56;93801.41;5008417;28;20228;-74
2021/08/05 06:34:15;;;;;;;2.23;2.00;;;23.60;99.90;;;22.67;79.24;93793.25;4991650;28;20197;-74
2021/08/05 06:36:41;;;;;;;2.33;1.77;;;23.10;99.90;;;21.84;79.19;93820.75;5008337;28;20205;-73
2021/08/05 06:39:10;;;;;;;2.60;1.60;;;22.40;99.90;;;21.13;78.92;93796.78;5008945;28;20259;-73
2021/08/05 06:41:36;;;;;;;2.00;1.77;;;21.70;99.90;;;20.69;79.13;93816.34;4991749;28;20305;-73
2021/08/05 06:44:02;;;;;;;1.90;1.73;;;21.10;99.90;;;20.43;78.79;93838.06;5009669;28;20196;-72
2021/08/05 06:46:28;;;;;;;1.93;1.73;;;20.60;99.90;;;20.48;79.00;93854.06;4992439;28;20191;-72
2021/08/05 06:48:54;;;;;;;2.00;1.80;;;20.50;99.90;;;20.41;78.67;93851.09;5007010;28;20189;-72
2021/08/05 06:51:20;;;;;;;2.10;2.00;;;20.30;99.90;;;20.36;78.34;93864.72;5005823;28;20684;-71
2021/08/05 06:53:46;;;;;;;2.67;2.23;;;20.40;99.90;;;20.38;78.20;93857.13;4978210;28;20242;-72
2021/08/05 06:56:13;;;;;;;2.53;1.87;;;20.30;99.90;;;20.18;78.32;93852.47;5008121;28;20740;-72
2021/08/05 06:58:41;;;;;;;2.10;2.00;;;19.80;99.90;;;19.89;78.27;93845.94;4991195;28;20266;-72
2021/08/05 07:01:07;;;;;;;2.20;2.00;;;19.80;99.90;;;19.66;78.18;93839.25;5008917;28;20204;-72
2021/08/05 07:03:35;;;;;;;2.17;2.00;;;19.60;99.90;;;19.63;78.09;93855.22;5006257;28;20217;-71
2021/08/05 07:06:01;;;;;;;2.40;1.70;;;19.50;99.90;;;19.82;77.80;93867.19;4983311;28;20206;-72
2021/08/05 07:08:26;;;;;;;2.37;1.70;;;19.50;99.90;;;20.30;77.96;93866.84;4991971;28;20199;-72
2021/08/05 07:10:52;;;;;;;2.73;1.70;;;19.80;99.90;;;20.41;77.90;93848.41;4989442;28;20678;-71
2021/08/05 07:13:18;;;;;;;2.17;2.00;;;20.10;99.90;;;20.44;77.61;93850.44;5008664;28;20220;-72
2021/08/05 07:15:44;;;;;;;1.57;1.47;;;20.10;99.90;;;20.25;77.54;93837.38;4990454;28;20225;-71
2021/08/05 07:18:10;;;;;;;1.60;1.50;;;20.00;99.90;;;20.15;77.43;93837.75;5001449;28;20275;-71
2021/08/05 07:20:39;;;;;;;3.87;1.40;;;19.90;99.90;;;19.84;77.48;93848.03;5004649;28;20199;-72
2021/08/05 07:23:04;;;;;;;2.27;1.67;;;20.00;99.90;;;19.59;77.47;93835.47;5009875;28;20639;-72
2021/08/05 07:25:30;;;;;;;1.63;1.13;;;19.50;99.90;;;19.33;77.28;93846.28;5013226;28;20211;-71
2021/08/05 07:28:00;;;;;;;3.00;1.40;;;19.20;99.90;;;19.14;77.24;93837.78;4972332;28;20207;-71
2021/08/05 07:30:26;;;;;;;1.30;1.20;;;19.00;99.90;;;19.21;77.14;93857.66;5002764;28;20222;-71
2021/08/05 07:32:52;;;;;;;1.40;1.30;;;19.00;99.90;;;19.15;77.24;93850.88;5008752;28;20217;-72
2021/08/05 07:35:21;;;;;;;1.43;1.33;;;18.90;99.90;;;19.00;77.22;93846.03;4988037;28;20280;-71
2021/08/05 07:37:47;;;;;;;3.83;1.60;;;18.70;99.90;;;18.86;77.03;93846.19;4991763;28;20527;-71
2021/08/05 07:40:14;;;;;;;2.03;1.70;;;18.60;99.90;;;18.81;76.94;93849.00;5009880;28;20727;-71
2021/08/05 07:42:43;;;;;;;1.70;1.60;;;18.50;99.90;;;18.83;76.99;93857.56;5010693;28;20285;-71
2021/08/05 07:45:10;;;;;;;1.70;1.60;;;18.50;99.90;;;18.64;76.93;93851.69;5005572;28;20204;-71
2021/08/05 07:47:39;;;;;;;2.63;1.60;;;18.30;99.90;;;18.61;77.07;93859.59;5013163;28;20203;-71
2021/08/05 07:50:09;;;;;;;1.80;1.70;;;18.20;99.90;;;18.59;76.81;93861.81;5007268;28;20219;-71
2021/08/05 07:52:36;;;;;;;1.80;1.70;;;18.10;99.90;;;18.49;76.94;93859.41;4991972;28;20218;-71
2021/08/05 07:55:05;;;;;;;1.90;1.80;;;18.00;99.90;;;18.50;76.73;93859.09;5007416;28;20203;-71
2021/08/05 07:57:34;;;;;;;1.70;1.60;;;18.00;99.90;;;18.55;76.71;93864.34;5009689;28;20208;-71
2021/08/05 08:00:00;;;;;;;1.77;1.40;;;18.00;99.90;;;18.70;76.79;93855.03;4989826;28;20200;-71
2021/08/05 08:02:27;;;;;;;1.30;1.10;;;18.10;99.90;;;18.68;76.62;93863.38;4991364;28;20286;-71
2021/08/05 08:04:54;;;;;;;2.07;1.30;;;18.10;99.90;;;18.63;76.77;93855.50;5005030;28;20248;-71
2021/08/05 08:07:20;;;;;;;1.00;1.00;;;17.90;99.90;;;18.68;76.69;93871.44;4991501;28;20206;-71
2021/08/05 08:09:45;;;;;;;1.97;1.20;;;17.90;99.90;;;18.73;76.70;93865.94;5009952;28;20259;-71
2021/08/05 08:12:11;;;;;;;1.20;1.03;;;18.00;99.90;;;18.70;76.57;93866.53;4991535;28;20643;-71
2021/08/05 08:14:37;;;;;;;1.30;1.20;;;18.00;99.90;;;19.17;76.50;93888.19;5007535;28;20204;-71
2021/08/05 08:17:04;;;;;;;1.43;1.30;;;18.30;99.90;;;19.60;76.59;93880.06;5007042;28;20191;-71
2021/08/05 08:19:33;;;;;;;2.40;1.30;;;18.80;99.90;;;20.00;76.49;93875.97;5008448;28;20198;-71
2021/08/05 08:22:02;;;;;;;1.30;1.20;;;19.10;99.90;;;20.38;76.20;93903.66;5010641;28;20200;-72
2021/08/05 08:24:30;;;;;;;1.10;1.00;;;19.50;99.90;;;20.69;76.21;93871.00;4993864;28;20211;-71
2021/08/05 08:26:56;;;;;;;1.33;1.23;;;19.80;99.90;;;21.02;75.92;93873.75;4990080;28;20210;-71
2021/08/05 08:29:22;;;;;;;1.40;1.30;;;20.30;99.90;;;21.06;75.86;93869.28;5007887;28;20891;-72
2021/08/05 08:31:50;;;;;;;1.30;1.20;;;20.50;99.90;;;21.01;76.01;93861.41;4956260;28;20222;-71
2021/08/05 08:34:18;;;;;;;1.40;1.30;;;20.60;99.90;;;20.84;76.04;93862.34;5005768;28;20256;-72
2021/08/05 08:36:45;;;;;;;2.37;1.30;;;20.60;99.90;;;20.86;75.76;93872.78;5015319;28;20242;-71
2021/08/05 08:39:12;;;;;;;1.53;1.10;;;20.30;99.90;;;20.99;75.68;93882.50;5008072;28;20197;-71
2021/08/05 08:41:41;;;;;;;1.40;1.20;;;21.00;99.90;;;21.44;75.50;93910.38;5005909;28;20229;-71
2021/08/05 08:44:08;;;;;;;2.53;1.23;;;21.00;99.90;;;21.45;75.70;93873.41;5002489;28;20216;-71
2021/08/05 08:46:36;;;;;;;1.50;1.40;;;21.20;99.90;;;21.61;75.81;93878.94;5006534;28;20203;-71
2021/08/05 08:49:09;;;;;;;1.53;1.43;;;21.40;99.90;;;22.47;75.39;93903.81;5006165;28;20220;-72
2021/08/05 08:51:36;;;;;;;1.40;1.30;;;22.10;99.90;;;23.04;75.05;93886.63;4994946;28;20289;-71
2021/08/05 08:54:08;;;;;;;1.90;1.63;;;22.70;99.90;;;23.92;74.48;93908.06;5007292;28;20189;-72
2021/08/05 08:56:39;;;;;;;1.83;1.50;;;23.60;99.90;;;24.95;74.52;93905.16;5016025;28;20235;-72
2021/08/05 08:59:06;;;;;;;1.50;1.30;;;24.60;99.90;;;25.27;74.54;93895.00;5023677;28;20189;-72
2021/08/05 09:01:39;;;;;;;1.73;1.53;;;25.00;99.90;;;27.05;73.72;93938.59;5020494;28;20197;-72
2021/08/05 09:04:08;;;;;;;2.73;1.40;;;27.00;99.90;;;27.70;73.97;93875.66;4992915;28;20223;-72
2021/08/05 09:06:35;;;;;;;1.50;1.40;;;28.20;99.90;;;27.34;73.68;93796.25;5004894;28;20341;-72
2021/08/05 09:09:04;;;;;;;1.40;1.30;;;28.40;99.90;;;26.71;73.07;93838.97;5009415;28;20199;-72
2021/08/05 09:11:30;;;;;;;1.30;1.20;;;27.90;99.90;;;26.20;72.83;93838.56;4991299;28;20196;-72
2021/08/05 09:13:56;;;;;;;1.17;1.07;;;27.30;99.90;;;26.20;72.71;93865.75;4994746;28;20240;-72
2021/08/05 09:16:32;;;;;;;1.53;1.43;;;27.00;99.90;;;25.97;72.10;93882.81;5009503;28;20283;-71
2021/08/05 09:19:19;;;;;;;0.90;0.90;;;26.60;99.90;;;26.24;72.17;93912.78;4992308;28;20189;-71
2021/08/05 09:21:57;;;;;;;1.50;1.00;;;26.60;99.90;;;26.02;71.97;93887.16;5009794;28;21644;-71
2021/08/05 09:24:30;;;;;;;1.30;0.90;;;26.50;99.90;;;28.01;71.39;93976.84;5007685;28;20200;-71
2021/08/05 09:26:59;;;;;;;1.87;1.00;;;28.00;99.90;;;30.28;70.61;93952.00;4993870;28;20187;-72
2021/08/05 09:29:25;;;;;;;0.90;0.80;;;30.60;99.90;;;32.41;69.78;93950.50;5018992;28;20184;-72
2021/08/05 09:31:53;;;;;;;1.33;0.93;;;33.00;99.90;;;33.63;69.90;93940.13;5006924;28;20299;-72
2021/08/05 09:34:40;;;;;;;0.77;0.77;;;34.80;98.40;;;35.57;68.47;94016.53;5021656;28;20235;-72
2021/08/05 09:37:10;;;;;;;0.70;0.70;;;37.20;91.00;;;36.93;67.61;93881.59;5005614;28;20195;-70
2021/08/05 09:39:42;;;;;;;0.80;0.80;;;39.20;85.00;;;37.76;66.90;93824.47;5022759;28;20204;-70
2021/08/05 09:42:13;;;;;;;2.03;0.70;;;40.70;78.00;;;36.69;66.67;93759.41;5006639;28;20287;-70
2021/08/05 09:44:39;;;;;;;1.48;0.60;;;39.90;71.60;;;36.87;65.75;93880.53;5013977;28;20211;-70
2021/08/05 09:47:16;;;;;;;0.60;0.60;;;40.10;71.00;;;37.78;64.35;93931.97;5008631;28;20636;-71
2021/08/05 09:49:51;;;;;;;0.60;0.60;;;41.30;68.00;;;39.11;63.19;93918.13;4993949;28;20197;-70
2021/08/05 09:52:30;;;;;;;0.68;0.68;;;42.10;63.00;;;37.64;63.10;93877.78;5006742;28;20212;-71
2021/08/05 09:55:00;;;;;;;1.67;0.60;;;41.10;66.70;;;37.14;63.06;93722.69;5015580;28;21214;-71
2021/08/05 09:57:32;;;;;;;0.80;0.60;;;41.00;64.50;;;35.01;62.50;93710.34;4999690;28;20197;-71
2021/08/05 10:00:16;;;;;;;1.00;0.75;;;39.20;67.00;;;35.94;61.73;93928.75;5011789;28;20185;-71
2021/08/05 10:02:50;;;;;;;0.88;0.70;;;39.10;67.90;;;38.47;60.63;93919.34;5010576;28;20197;-71
2021/08/05 10:05:21;;;;;;;0.60;0.60;;;40.90;64.60;;;39.19;59.76;93802.13;5010310;28;20196;-71
2021/08/05 10:07:56;;;;;;;0.60;0.60;;;41.50;63.10;;;37.08;59.37;93808.16;5010504;28;20366;-71
2021/08/05 10:10:27;;;;;;;1.10;0.80;;;39.90;63.00;;;37.67;58.21;93820.78;5009512;28;20205;-71
2021/08/05 10:12:58;;;;;;;0.70;0.70;;;40.00;63.80;;;38.67;57.79;93900.50;4999009;28;20691;-71
2021/08/05 10:15:30;;;;;;;0.93;0.50;;;41.60;63.30;;;37.68;57.88;93692.25;5012335;28;20188;-72
2021/08/05 10:18:01;;;;;;;0.63;0.63;;;41.70;60.80;;;36.65;57.41;93708.19;5012518;28;20205;-71
2021/08/05 10:20:29;;;;;;;0.68;0.68;;;40.80;60.90;;;34.57;56.87;93697.78;4994234;28;20199;-71
2021/08/05 10:22:57;;;;;;;2.78;0.80;;;38.30;65.70;;;33.39;56.18;93700.03;5006389;28;20180;-70
2021/08/05 10:25:26;;;;;;;0.50;0.50;;;36.70;66.00;;;32.02;55.95;93777.91;5007931;28;20193;-70